createdAt,value
2023-03-12T00:01:59.673Z,100.00
2023-03-12T00:04:26.823Z,100.00
2023-03-12T00:06:53.214Z,100.00
2023-03-12T00:09:19.962Z,100.00
2023-03-12T00:11:46.378Z,100.00
2023-03-12T00:14:12.708Z,99.76
2023-03-12T00:16:39.132Z,99.66
2023-03-12T00:19:05.691Z,99.46
2023-03-12T00:21:32.121Z,98.94
2023-03-12T00:23:58.586Z,98.02
2023-03-12T00:26:24.914Z,97.12
2023-03-12T00:28:51.752Z,96.43
2023-03-12T00:31:21.095Z,95.80
2023-03-12T00:33:49.928Z,95.70
2023-03-12T00:36:18.108Z,95.53
2023-03-12T00:38:44.717Z,94.59
2023-03-12T00:41:11.086Z,94.20
2023-03-12T00:43:37.446Z,93.90
2023-03-12T00:46:03.933Z,93.66
2023-03-12T00:48:30.292Z,92.63
2023-03-12T00:50:56.680Z,92.45
2023-03-12T00:53:23.117Z,91.99
2023-03-12T00:55:49.483Z,91.88
2023-03-12T00:58:15.845Z,91.66
2023-03-12T01:00:42.212Z,91.61
2023-03-12T01:03:08.659Z,91.36
2023-03-12T01:05:40.494Z,91.33
2023-03-12T01:08:08.882Z,91.13
2023-03-12T01:10:36.481Z,91.44
2023-03-12T01:13:03.458Z,91.19
2023-03-12T01:15:30.015Z,91.10
2023-03-12T01:17:56.428Z,91.24
2023-03-12T01:20:23.176Z,91.54
2023-03-12T01:22:49.774Z,91.37
2023-03-12T01:25:16.209Z,91.05
2023-03-12T01:27:42.629Z,91.09
2023-03-12T01:30:10.417Z,91.07
2023-03-12T01:32:36.992Z,90.93
2023-03-12T01:35:03.659Z,90.67
2023-03-12T01:37:31.829Z,90.02
2023-03-12T01:39:58.477Z,90.20
2023-03-12T01:42:24.949Z,90.73
2023-03-12T01:45:00.411Z,90.04
2023-03-12T01:47:31.794Z,89.44
2023-03-12T01:50:00.557Z,89.28
2023-03-12T01:52:36.646Z,89.00
2023-03-12T01:55:09.423Z,88.75
2023-03-12T01:57:51.009Z,88.61
2023-03-12T02:00:27.582Z,88.80
2023-03-12T02:02:59.750Z,88.48
2023-03-12T02:06:03.684Z,88.23
2023-03-12T02:08:30.496Z,88.16
2023-03-12T02:10:56.840Z,88.24
2023-03-12T02:13:23.266Z,88.11
2023-03-12T02:15:49.702Z,88.52
2023-03-12T02:18:18.992Z,88.27
2023-03-12T02:20:53.278Z,88.17
2023-03-12T02:23:35.097Z,88.11
2023-03-12T02:26:03.911Z,88.21
2023-03-12T02:28:30.501Z,88.32
2023-03-12T02:31:00.406Z,88.05
2023-03-12T02:33:27.271Z,88.46
2023-03-12T02:35:54.718Z,92.38
2023-03-12T02:38:45.905Z,90.96
2023-03-12T02:41:16.449Z,90.43
2023-03-12T02:43:46.269Z,89.50
2023-03-12T02:46:13.895Z,89.28
2023-03-12T02:48:40.401Z,89.44
2023-03-12T02:51:07.304Z,89.37
2023-03-12T02:53:33.757Z,89.00
2023-03-12T02:56:00.126Z,88.70
2023-03-12T02:58:26.589Z,88.73
2023-03-12T03:00:52.969Z,88.24
2023-03-12T03:03:19.372Z,88.48
2023-03-12T03:05:45.922Z,88.07
2023-03-12T03:08:12.340Z,88.79
2023-03-12T03:10:39.023Z,88.13
2023-03-12T03:13:05.423Z,87.79
2023-03-12T03:15:31.904Z,87.67
2023-03-12T03:17:58.432Z,87.32
2023-03-12T03:20:26.554Z,87.67
2023-03-12T03:22:52.937Z,88.11
2023-03-12T03:25:22.181Z,87.79
2023-03-12T03:27:48.812Z,87.59
2023-03-12T03:30:16.720Z,87.67
2023-03-12T03:32:43.092Z,87.62
2023-03-12T03:35:10.021Z,87.46
2023-03-12T03:37:36.397Z,87.24
2023-03-12T03:40:03.476Z,87.30
2023-03-12T03:42:29.941Z,87.00
2023-03-12T03:44:56.301Z,86.59
2023-03-12T03:47:22.914Z,86.79
2023-03-12T03:49:49.382Z,86.75
2023-03-12T03:52:15.820Z,86.79
2023-03-12T03:54:42.150Z,87.04
2023-03-12T03:57:08.511Z,86.81
2023-03-12T03:59:34.919Z,86.41
2023-03-12T04:02:02.235Z,86.59
2023-03-12T04:04:28.871Z,86.72
2023-03-12T04:06:55.304Z,86.74
2023-03-12T04:09:21.661Z,86.84
2023-03-12T04:11:48.120Z,86.71
2023-03-12T04:14:14.661Z,86.96
2023-03-12T04:16:41.101Z,87.10
2023-03-12T04:19:07.485Z,86.81
2023-03-12T04:21:33.899Z,87.19
2023-03-12T04:24:00.228Z,87.71
2023-03-12T04:26:26.692Z,88.08
2023-03-12T04:28:53.070Z,87.93
2023-03-12T04:31:19.619Z,87.84
2023-03-12T04:33:46.579Z,88.41
2023-03-12T04:36:14.552Z,88.79
2023-03-12T04:38:40.949Z,89.38
2023-03-12T04:41:11.575Z,89.19
2023-03-12T04:43:37.956Z,90.05
2023-03-12T04:46:04.857Z,90.29
2023-03-12T04:48:31.373Z,90.20
2023-03-12T04:50:57.900Z,90.70
2023-03-12T04:53:25.214Z,91.01
2023-03-12T04:55:51.773Z,92.68
2023-03-12T04:58:19.586Z,93.29
2023-03-12T05:00:47.216Z,94.01
2023-03-12T05:03:13.759Z,94.82
2023-03-12T05:05:40.233Z,95.68
2023-03-12T05:08:06.573Z,95.92
2023-03-12T05:10:33.469Z,96.16
2023-03-12T05:13:00.266Z,97.01
2023-03-12T05:15:26.907Z,97.23
2023-03-12T05:17:54.774Z,96.62
2023-03-12T05:20:21.431Z,97.05
2023-03-12T05:22:47.837Z,96.74
2023-03-12T05:25:14.474Z,96.68
2023-03-12T05:27:40.888Z,96.80
2023-03-12T05:30:07.904Z,96.89
2023-03-12T05:32:34.412Z,96.97
2023-03-12T05:35:00.903Z,96.84
2023-03-12T05:37:27.369Z,96.21
2023-03-12T05:39:54.609Z,96.50
2023-03-12T05:42:21.074Z,95.72
2023-03-12T05:44:47.413Z,96.03
2023-03-12T05:47:13.746Z,96.09
2023-03-12T05:49:40.371Z,95.95
2023-03-12T05:52:06.861Z,95.71
2023-03-12T05:54:33.347Z,95.60
2023-03-12T05:56:59.811Z,95.71
2023-03-12T05:59:26.602Z,95.93
2023-03-12T06:01:52.995Z,95.59
2023-03-12T06:04:19.432Z,95.15
2023-03-12T06:06:46.408Z,95.30
2023-03-12T06:09:13.158Z,95.44
2023-03-12T06:11:39.491Z,96.31
2023-03-12T06:14:05.897Z,96.42
2023-03-12T06:16:32.358Z,96.83
2023-03-12T06:19:01.077Z,96.74
2023-03-12T06:21:30.782Z,97.38
2023-03-12T06:23:57.301Z,98.21
2023-03-12T06:26:24.250Z,98.00
2023-03-12T06:28:51.112Z,98.64
2023-03-12T06:31:18.479Z,99.07
2023-03-12T06:33:44.886Z,99.22
2023-03-12T06:36:12.562Z,100.00
2023-03-12T06:38:39.553Z,100.00
2023-03-12T06:41:08.812Z,100.00
2023-03-12T06:43:36.546Z,100.00
2023-03-12T06:46:04.405Z,100.00
2023-03-12T06:48:36.750Z,100.00
2023-03-12T06:51:04.484Z,100.00
2023-03-12T06:53:32.057Z,100.00
2023-03-12T06:55:58.672Z,100.00
2023-03-12T06:58:25.158Z,100.00
2023-03-12T07:00:52.739Z,100.00
2023-03-12T07:03:19.509Z,100.00
2023-03-12T07:05:47.486Z,100.00
2023-03-12T07:08:14.364Z,100.00
2023-03-12T07:10:40.889Z,100.00
2023-03-12T07:13:07.503Z,100.00
2023-03-12T07:15:34.166Z,100.00
2023-03-12T07:18:11.610Z,100.00
2023-03-12T07:20:40.477Z,100.00
2023-03-12T07:23:07.760Z,100.00
2023-03-12T07:25:38.795Z,100.00
2023-03-12T07:28:06.218Z,100.00
2023-03-12T07:30:33.589Z,100.00
2023-03-12T07:33:12.049Z,100.00
2023-03-12T07:35:39.132Z,100.00
2023-03-12T07:38:06.631Z,100.00
2023-03-12T07:40:33.749Z,100.00
2023-03-12T07:43:00.449Z,100.00
2023-03-12T07:45:27.092Z,100.00
2023-03-12T07:47:53.478Z,100.00
2023-03-12T07:50:20.243Z,100.00
2023-03-12T07:52:47.288Z,100.00
2023-03-12T07:55:13.903Z,100.00
2023-03-12T07:57:40.792Z,100.00
2023-03-12T08:00:10.165Z,100.00
2023-03-12T08:02:36.851Z,100.00
2023-03-12T08:05:03.540Z,100.00
2023-03-12T08:07:32.391Z,100.00
2023-03-12T08:09:59.756Z,100.00
2023-03-12T08:12:26.616Z,100.00
2023-03-12T08:14:53.063Z,100.00
2023-03-12T08:17:20.366Z,100.00
2023-03-12T08:19:46.784Z,100.00
2023-03-12T08:22:13.215Z,100.00
2023-03-12T08:24:39.618Z,100.00
2023-03-12T08:27:06.106Z,100.00
2023-03-12T08:29:33.526Z,100.00
2023-03-12T08:32:05.411Z,100.00
2023-03-12T08:34:33.988Z,100.00
2023-03-12T08:37:01.072Z,100.00
2023-03-12T08:39:27.396Z,100.00
2023-03-12T08:41:55.340Z,100.00
2023-03-12T08:44:23.176Z,100.00
2023-03-12T08:46:49.863Z,100.00
2023-03-12T08:49:16.392Z,100.00
2023-03-12T08:51:42.888Z,100.00
2023-03-12T08:54:09.497Z,100.00
2023-03-12T08:56:42.343Z,100.00
2023-03-12T08:59:10.400Z,100.00
2023-03-12T09:01:36.839Z,100.00
2023-03-12T09:04:04.203Z,100.00
2023-03-12T09:06:30.942Z,100.00
2023-03-12T09:08:57.701Z,100.00
2023-03-12T09:11:24.114Z,100.00
2023-03-12T09:14:18.668Z,100.00
2023-03-12T09:16:37.124Z,100.00
2023-03-12T09:19:04.527Z,100.00
2023-03-12T09:21:31.019Z,100.00
2023-03-12T09:23:57.665Z,100.00
2023-03-12T09:26:24.140Z,100.00
2023-03-12T09:28:50.572Z,100.00
2023-03-12T09:31:17.056Z,100.00
2023-03-12T09:33:43.515Z,100.00
2023-03-12T09:36:10.290Z,100.00
2023-03-12T09:38:37.849Z,100.00
2023-03-12T09:41:05.751Z,100.00
2023-03-12T09:43:44.814Z,100.00
2023-03-12T09:46:24.306Z,100.00
2023-03-12T09:48:53.246Z,100.00
2023-03-12T09:51:38.064Z,100.00
2023-03-12T09:54:14.160Z,100.00
2023-03-12T09:56:40.978Z,100.00
2023-03-12T09:59:12.492Z,100.00
2023-03-12T10:01:54.757Z,100.00
2023-03-12T10:04:52.386Z,100.00
2023-03-12T10:07:37.803Z,100.00
2023-03-12T10:10:16.660Z,100.00
2023-03-12T10:12:58.367Z,100.00
2023-03-12T10:15:34.217Z,100.00
2023-03-12T10:18:26.542Z,100.00
2023-03-12T10:21:19.083Z,100.00
2023-03-12T10:23:56.927Z,100.00
2023-03-12T10:26:25.524Z,100.00
2023-03-12T10:29:01.895Z,100.00
2023-03-12T10:31:37.273Z,100.00
2023-03-12T10:34:15.509Z,100.00
2023-03-12T10:36:42.134Z,100.00
2023-03-12T10:39:16.604Z,100.00
2023-03-12T10:41:45.605Z,100.00
2023-03-12T10:44:19.874Z,100.00
2023-03-12T10:46:47.160Z,100.00
2023-03-12T10:49:25.857Z,100.00
2023-03-12T10:52:16.294Z,100.00
2023-03-12T10:54:45.021Z,100.00
2023-03-12T10:57:13.042Z,100.00
2023-03-12T10:59:43.182Z,100.00
2023-03-12T11:02:34.900Z,100.00
2023-03-12T11:05:03.498Z,100.00
2023-03-12T11:07:32.826Z,100.00
2023-03-12T11:10:08.417Z,100.00
2023-03-12T11:12:37.533Z,100.00
2023-03-12T11:15:35.981Z,100.00
2023-03-12T11:18:18.656Z,100.00
2023-03-12T11:20:45.420Z,100.00
2023-03-12T11:23:21.805Z,100.00
2023-03-12T11:26:02.849Z,100.00
2023-03-12T11:28:37.665Z,100.00
2023-03-12T11:31:10.195Z,100.00
2023-03-12T11:33:36.912Z,100.00
2023-03-12T11:36:15.409Z,100.00
2023-03-12T11:38:48.590Z,100.00
2023-03-12T11:41:41.733Z,100.00
2023-03-12T11:44:23.238Z,100.00
2023-03-12T11:47:06.594Z,100.00
2023-03-12T11:49:44.019Z,100.00
2023-03-12T11:52:28.669Z,100.00
2023-03-12T11:55:31.419Z,100.00
2023-03-12T11:57:57.974Z,100.00
2023-03-12T12:00:33.235Z,100.00
2023-03-12T12:03:21.501Z,100.00
2023-03-12T12:05:56.791Z,100.00
2023-03-12T12:08:56.094Z,100.00
2023-03-12T12:11:33.696Z,100.00
2023-03-12T12:14:11.640Z,100.00
2023-03-12T12:17:15.553Z,100.00
2023-03-12T12:20:00.625Z,100.00
2023-03-12T12:22:33.100Z,100.00
2023-03-12T12:25:18.398Z,100.00
2023-03-12T12:27:53.996Z,100.00
2023-03-12T12:30:26.505Z,100.00
2023-03-12T12:33:23.832Z,100.00
2023-03-12T12:35:50.557Z,100.00
2023-03-12T12:38:53.958Z,100.00
2023-03-12T12:41:31.117Z,100.00
2023-03-12T12:44:14.863Z,100.00
2023-03-12T12:46:50.299Z,100.00
2023-03-12T12:49:57.433Z,100.00
2023-03-12T12:52:24.785Z,100.00
2023-03-12T12:55:22.527Z,100.00
2023-03-12T12:58:12.382Z,100.00
2023-03-12T13:00:49.301Z,100.00
2023-03-12T13:03:22.020Z,100.00
2023-03-12T13:06:05.049Z,100.00
2023-03-12T13:08:51.303Z,100.00
2023-03-12T13:11:20.642Z,100.00
2023-03-12T13:14:11.825Z,100.00
2023-03-12T13:16:43.652Z,100.00
2023-03-12T13:19:15.940Z,100.00
2023-03-12T13:22:10.008Z,100.00
2023-03-12T13:24:51.788Z,100.00
2023-03-12T13:27:39.503Z,100.00
2023-03-12T13:30:45.391Z,100.00
2023-03-12T13:33:15.667Z,100.00
2023-03-12T13:35:42.296Z,100.00
2023-03-12T13:38:17.624Z,100.00
2023-03-12T13:41:00.850Z,100.00
2023-03-12T13:43:40.413Z,100.00
2023-03-12T13:46:20.896Z,100.00
2023-03-12T13:48:49.036Z,100.00
2023-03-12T13:51:19.785Z,100.00
2023-03-12T13:54:01.288Z,100.00
2023-03-12T13:56:31.062Z,100.00
2023-03-12T13:59:01.722Z,100.00
2023-03-12T14:01:37.221Z,100.00
2023-03-12T14:04:13.097Z,100.00
2023-03-12T14:07:02.045Z,100.00
2023-03-12T14:09:57.582Z,100.00
2023-03-12T14:13:06.451Z,100.00
2023-03-12T14:15:44.328Z,100.00
2023-03-12T14:18:20.609Z,100.00
2023-03-12T14:20:56.526Z,100.00
2023-03-12T14:23:27.296Z,97.02
2023-03-12T14:26:00.137Z,97.31
2023-03-12T14:28:28.894Z,96.26
2023-03-12T14:31:05.150Z,94.65
2023-03-12T14:33:44.448Z,100.00
2023-03-12T14:36:21.214Z,100.00
2023-03-12T14:38:49.225Z,98.29
2023-03-12T14:41:31.201Z,93.94
2023-03-12T14:44:06.018Z,92.10
2023-03-12T14:46:32.454Z,95.47
2023-03-12T14:48:59.084Z,93.35
2023-03-12T14:51:29.432Z,92.18
2023-03-12T14:53:56.617Z,92.20
2023-03-12T14:56:29.273Z,89.04
2023-03-12T14:58:57.033Z,90.54
2023-03-12T15:01:33.485Z,90.53
2023-03-12T15:04:06.377Z,89.38
2023-03-12T15:06:37.348Z,93.06
2023-03-12T15:09:06.345Z,96.37
2023-03-12T15:11:35.582Z,91.36
2023-03-12T15:14:05.672Z,93.21
2023-03-12T15:16:32.757Z,94.07
2023-03-12T15:18:59.779Z,87.02
2023-03-12T15:21:26.446Z,90.92
2023-03-12T15:23:54.059Z,87.68
2023-03-12T15:26:20.342Z,87.86
2023-03-12T15:29:15.072Z,90.65
2023-03-12T15:31:43.757Z,89.52
2023-03-12T15:34:12.309Z,89.21
2023-03-12T15:36:47.399Z,93.09
2023-03-12T15:39:29.783Z,92.45
2023-03-12T15:42:01.383Z,89.96
2023-03-12T15:44:32.012Z,91.09
2023-03-12T15:47:13.318Z,92.72
2023-03-12T15:49:40.864Z,90.39
2023-03-12T15:52:19.213Z,92.95
2023-03-12T15:55:07.581Z,89.49
2023-03-12T15:57:35.183Z,92.18
2023-03-12T16:00:13.726Z,92.12
2023-03-12T16:02:57.911Z,92.27
2023-03-12T16:05:31.280Z,92.08
2023-03-12T16:08:00.616Z,91.19
2023-03-12T16:10:27.975Z,90.63
2023-03-12T16:13:02.255Z,92.69
2023-03-12T16:15:36.271Z,91.78
2023-03-12T16:18:02.901Z,90.40
2023-03-12T16:20:29.625Z,91.48
2023-03-12T16:22:56.221Z,94.06
2023-03-12T16:25:23.701Z,93.01
2023-03-12T16:27:54.755Z,93.21
2023-03-12T16:30:26.487Z,93.12
2023-03-12T16:32:53.015Z,92.25
2023-03-12T16:35:20.728Z,94.41
2023-03-12T16:37:47.277Z,93.35
2023-03-12T16:40:24.003Z,93.52
2023-03-12T16:43:02.540Z,93.43
2023-03-12T16:45:30.550Z,93.72
2023-03-12T16:48:02.231Z,93.69
2023-03-12T16:50:29.288Z,93.91
2023-03-12T16:52:55.781Z,95.30
2023-03-12T16:55:25.375Z,94.44
2023-03-12T16:57:59.239Z,95.72
2023-03-12T17:00:29.474Z,95.45
2023-03-12T17:02:57.960Z,95.50
2023-03-12T17:05:26.480Z,95.23
2023-03-12T17:07:53.230Z,95.35
2023-03-12T17:10:19.922Z,94.94
2023-03-12T17:12:48.332Z,95.85
2023-03-12T17:15:19.986Z,96.24
2023-03-12T17:17:47.411Z,96.85
2023-03-12T17:20:15.631Z,96.25
2023-03-12T17:22:42.136Z,97.18
2023-03-12T17:25:19.945Z,96.69
2023-03-12T17:27:46.314Z,96.88
2023-03-12T17:30:13.138Z,96.20
2023-03-12T17:32:39.643Z,96.30
2023-03-12T17:35:06.766Z,96.21
2023-03-12T17:37:34.631Z,96.59
2023-03-12T17:40:05.535Z,97.33
2023-03-12T17:42:31.929Z,97.29
2023-03-12T17:44:58.282Z,97.37
2023-03-12T17:47:24.692Z,96.85
2023-03-12T17:49:51.025Z,97.50
2023-03-12T17:52:17.420Z,96.88
2023-03-12T17:54:43.778Z,96.29
2023-03-12T17:57:10.261Z,97.11
2023-03-12T17:59:36.582Z,96.87
2023-03-12T18:02:03.473Z,97.12
2023-03-12T18:04:30.043Z,96.31
2023-03-12T18:06:56.479Z,97.87
2023-03-12T18:09:23.295Z,96.91
2023-03-12T18:11:49.725Z,97.60
2023-03-12T18:14:16.045Z,97.94
2023-03-12T18:16:42.481Z,97.34
2023-03-12T18:19:08.893Z,97.68
2023-03-12T18:21:35.208Z,98.17
2023-03-12T18:24:08.260Z,96.84
2023-03-12T18:26:40.061Z,96.84
2023-03-12T18:29:06.561Z,96.15
2023-03-12T18:31:32.905Z,96.25
2023-03-12T18:33:59.320Z,96.59
2023-03-12T18:36:25.700Z,97.96
2023-03-12T18:38:52.033Z,98.15
2023-03-12T18:41:18.405Z,98.74
2023-03-12T18:43:44.733Z,97.35
2023-03-12T18:46:12.870Z,97.77
2023-03-12T18:48:39.260Z,97.85
2023-03-12T18:51:05.831Z,96.84
2023-03-12T18:53:33.837Z,97.33
2023-03-12T18:56:00.241Z,98.21
2023-03-12T18:58:27.833Z,97.71
2023-03-12T19:00:56.166Z,96.81
2023-03-12T19:03:23.575Z,96.94
2023-03-12T19:06:04.127Z,96.82
2023-03-12T19:08:30.515Z,97.77
2023-03-12T19:10:56.996Z,97.99
2023-03-12T19:13:23.450Z,98.73
2023-03-12T19:15:49.890Z,98.33
2023-03-12T19:18:16.253Z,97.52
2023-03-12T19:20:42.631Z,97.22
2023-03-12T19:23:08.980Z,97.98
2023-03-12T19:25:35.378Z,98.33
2023-03-12T19:28:01.829Z,98.02
2023-03-12T19:30:30.502Z,97.67
2023-03-12T19:32:56.940Z,98.27
2023-03-12T19:35:23.423Z,97.69
2023-03-12T19:37:49.781Z,97.61
2023-03-12T19:40:16.491Z,98.14
2023-03-12T19:42:42.826Z,97.24
2023-03-12T19:45:10.256Z,97.88
2023-03-12T19:47:36.704Z,97.94
2023-03-12T19:50:03.326Z,97.27
2023-03-12T19:52:30.025Z,97.25
2023-03-12T19:55:04.410Z,97.74
2023-03-12T19:57:31.756Z,97.72
2023-03-12T19:59:58.195Z,97.86
2023-03-12T20:02:24.838Z,97.95
2023-03-12T20:04:51.422Z,98.67
2023-03-12T20:07:18.412Z,99.19
2023-03-12T20:09:44.876Z,98.97
2023-03-12T20:12:11.386Z,99.09
2023-03-12T20:14:37.712Z,99.73
2023-03-12T20:17:04.093Z,99.51
2023-03-12T20:19:30.438Z,99.71
2023-03-12T20:21:57.236Z,99.70
2023-03-12T20:24:23.964Z,100.00
2023-03-12T20:26:50.311Z,100.00
2023-03-12T20:29:16.681Z,100.00
2023-03-12T20:31:43.154Z,100.00
2023-03-12T20:34:09.558Z,100.00
2023-03-12T20:36:35.914Z,100.00
2023-03-12T20:39:02.263Z,100.00
2023-03-12T20:41:28.700Z,100.00
2023-03-12T20:43:57.369Z,100.00
2023-03-12T20:46:24.236Z,100.00
2023-03-12T20:48:50.714Z,100.00
2023-03-12T20:51:17.529Z,100.00
2023-03-12T20:53:43.969Z,100.00
2023-03-12T20:56:11.068Z,100.00
2023-03-12T20:58:37.908Z,100.00
2023-03-12T21:01:05.545Z,100.00
2023-03-12T21:03:32.641Z,100.00
2023-03-12T21:06:01.397Z,100.00
2023-03-12T21:08:28.897Z,100.00
2023-03-12T21:10:55.595Z,100.00
2023-03-12T21:13:23.221Z,100.00
2023-03-12T21:15:50.159Z,100.00
2023-03-12T21:18:17.421Z,100.00
2023-03-12T21:20:44.765Z,100.00
2023-03-12T21:23:11.771Z,100.00
2023-03-12T21:25:40.162Z,100.00
2023-03-12T21:28:07.884Z,100.00
2023-03-12T21:30:34.617Z,100.00
2023-03-12T21:33:02.414Z,100.00
2023-03-12T21:35:29.587Z,100.00
2023-03-12T21:37:56.609Z,100.00
2023-03-12T21:40:23.912Z,100.00
2023-03-12T21:42:50.556Z,100.00
2023-03-12T21:45:17.109Z,100.00
2023-03-12T21:47:43.548Z,100.00
2023-03-12T21:50:10.903Z,100.00
2023-03-12T21:52:42.925Z,100.00
2023-03-12T21:55:10.400Z,100.00
2023-03-12T21:57:36.810Z,100.00
2023-03-12T22:00:04.713Z,100.00
2023-03-12T22:02:31.679Z,100.00
2023-03-12T22:05:00.837Z,100.00
2023-03-12T22:07:29.947Z,100.00
2023-03-12T22:09:56.648Z,100.00
2023-03-12T22:12:23.290Z,100.00
2023-03-12T22:14:49.626Z,100.00
2023-03-12T22:17:17.088Z,100.00
2023-03-12T22:19:43.804Z,100.00
2023-03-12T22:22:11.438Z,100.00
2023-03-12T22:24:37.824Z,100.00
2023-03-12T22:27:07.290Z,100.00
2023-03-12T22:29:34.438Z,100.00
2023-03-12T22:32:01.072Z,100.00
2023-03-12T22:34:29.379Z,100.00
2023-03-12T22:36:55.748Z,100.00
2023-03-12T22:39:22.065Z,100.00
2023-03-12T22:41:50.658Z,100.00
2023-03-12T22:44:17.144Z,100.00
2023-03-12T22:46:43.625Z,100.00
2023-03-12T22:49:10.054Z,100.00
2023-03-12T22:51:36.536Z,100.00
2023-03-12T22:54:03.062Z,100.00
2023-03-12T22:56:29.524Z,100.00
2023-03-12T22:58:56.127Z,100.00
2023-03-12T23:01:23.483Z,100.00
2023-03-12T23:03:50.648Z,100.00
2023-03-12T23:06:23.385Z,100.00
2023-03-12T23:08:51.271Z,100.00
2023-03-12T23:11:20.860Z,100.00
2023-03-12T23:13:48.250Z,100.00
2023-03-12T23:16:20.942Z,100.00
2023-03-12T23:18:48.337Z,100.00
2023-03-12T23:21:20.319Z,100.00
2023-03-12T23:23:47.939Z,100.00
2023-03-12T23:26:23.790Z,100.00
2023-03-12T23:28:53.175Z,100.00
2023-03-12T23:31:19.827Z,100.00
2023-03-12T23:33:46.353Z,100.00
2023-03-12T23:36:15.905Z,100.00
2023-03-12T23:38:42.923Z,100.00
2023-03-12T23:41:16.091Z,100.00
2023-03-12T23:43:42.606Z,100.00
2023-03-12T23:46:10.772Z,100.00
2023-03-12T23:48:41.125Z,100.00
2023-03-12T23:51:16.117Z,100.00
2023-03-12T23:53:44.825Z,100.00
2023-03-12T23:56:15.005Z,100.00
2023-03-12T23:58:42.833Z,100.00
